Lana Louise — WDC2702 — position and weather

sailwx.info

Track history (hours):
 
Tides and Currents Weather Stations Pressure Air Temp Water Temp Dewpoint Dewpoint Depression Visibility Wind Speed Wind Dir Waves Ship Positions

Lana Louise

Owner: Kirby Inland Marine LP, Houston, TX. More information available from US FCC via Universal Licensing System and Coast Guard Vessel Documentation Center.

Last reported at 2018-Jun-20 05:30 UTC. Time now 2018-Jun-20 05:27 UTC.
Position N 29°37' W 095°00'.

Length 108 m; draft 2.6 m.

Type: . MMSI: 366996580.

Date/timePositionNaut miles runAvg speedWind from/ knotsBaromVisibWave heightAir tempDewpointWater temp
2018-Jun-20 05:30N 29°37' W 095°00'0 0.0
2018-Jun-20 05:00N 29°37' W 095°00'0 0.0
2018-Jun-20 04:30N 29°37' W 095°00'0 0.0
2018-Jun-20 04:00N 29°37' W 095°00'0 0.0
2018-Jun-20 03:27N 29°37' W 095°00'0 0.0
2018-Jun-20 03:00N 29°37' W 095°00'0 0.0
2018-Jun-20 02:30N 29°37' W 095°00'0 0.0
2018-Jun-20 01:57N 29°37' W 095°00'0 0.0
2018-Jun-20 01:30N 29°37' W 095°00'0 0.0
2018-Jun-20 01:00N 29°37' W 095°00'0 0.0
2018-Jun-20 00:27N 29°37' W 095°00'0 0.0
2018-Jun-20 00:00N 29°37' W 095°00'0 0.0
2018-Jun-19 22:42N 29°37' W 095°00'0 0.0
2018-Jun-19 22:18N 29°37' W 095°00'0 0.0
2018-Jun-19 21:48N 29°37' W 095°00'0 0.0
2018-Jun-19 21:30N 29°37' W 095°00'0 0.0
2018-Jun-19 20:54N 29°37' W 095°00'0 0.0
2018-Jun-19 20:30N 29°37' W 095°00'0 0.0
2018-Jun-19 19:57N 29°37' W 095°00'0 0.0
2018-Jun-19 19:27N 29°37' W 095°00'0 0.0
2018-Jun-19 18:54N 29°37' W 095°00'0 0.0
2018-Jun-19 18:27N 29°37' W 095°00'0 0.1
2018-Jun-19 18:00N 29°37' W 095°00'2 4.2
2018-Jun-19 17:30N 29°37' W 094°58'2 3.8
2018-Jun-19 16:56N 29°39' W 094°58'2 4.6
2018-Jun-19 16:30N 29°41' W 094°59'  
2018-Jun-15 07:29N 29°42' W 095°01'2 4.4
2018-Jun-15 07:00N 29°41' W 094°59'1 0.1
2018-Jun-14 19:25N 29°41' W 095°00'0 0.8
2018-Jun-14 18:59N 29°41' W 094°60'7 0.5
2018-Jun-14 04:25N 29°46' W 095°05'2 0.1
2018-Jun-13 05:36N 29°45' W 095°04'4 0.1
2018-Jun-11 08:32N 29°42' W 095°01'0 5.9
2018-Jun-11 08:30N 29°42' W 095°01'3 5.6
2018-Jun-11 08:00N 29°40' W 094°59'3 5.4
2018-Jun-11 07:30N 29°38' W 094°58'3 5.7
2018-Jun-11 07:00N 29°35' W 094°56'15 5.2
2018-Jun-11 04:04N 29°22' W 094°48'0 5.2
2018-Jun-11 04:00N 29°22' W 094°47'1 2.4
2018-Jun-11 03:30N 29°21' W 094°46'0 0.0
2018-Jun-11 02:52N 29°21' W 094°46'0 0.1
2018-Jun-11 02:25N 29°21' W 094°46'0 0.0
2018-Jun-11 01:52N 29°21' W 094°46'0 0.0
2018-Jun-11 01:22N 29°21' W 094°46'0 0.0
2018-Jun-11 00:58N 29°21' W 094°46'0 0.0
2018-Jun-11 00:22N 29°21' W 094°46'0 0.1
2018-Jun-10 23:49N 29°21' W 094°46'0 0.1
2018-Jun-10 23:10N 29°21' W 094°46'0 0.0
2018-Jun-10 22:55N 29°21' W 094°46'0 0.0
2018-Jun-10 22:25N 29°21' W 094°46'0 0.1
2018-Jun-10 21:55N 29°21' W 094°46'0 0.0
2018-Jun-10 21:28N 29°21' W 094°46'0 0.0
2018-Jun-10 20:58N 29°21' W 094°46'1 2.3
2018-Jun-10 20:30N 29°22' W 094°47'12 4.9
2018-Jun-10 18:01N 29°32' W 094°54'1 5.2
2018-Jun-10 17:54N 29°33' W 094°55'2 5.2
2018-Jun-10 17:29N 29°35' W 094°56'3 5.3
2018-Jun-10 17:00N 29°37' W 094°57'3 5.3
2018-Jun-10 16:30N 29°39' W 094°58'  
Track history (hours):
 
Tides and Currents Weather Stations Pressure Air Temp Water Temp Dewpoint Dewpoint Depression Visibility Wind Speed Wind Dir Waves Ship Positions

Lana Louise

Owner: Kirby Inland Marine LP, Houston, TX. More information available from US FCC via Universal Licensing System and Coast Guard Vessel Documentation Center.

Last reported at 2018-Jun-20 05:30 UTC. Time now 2018-Jun-20 05:27 UTC.
Position N 29°37' W 095°00'.

Length 108 m; draft 2.6 m.

Type: . MMSI: 366996580.

Date/timePositionNaut miles runAvg speedWind from/ knotsBaromVisibWave heightAir tempDewpointWater temp
2018-Jun-20 05:30N 29°37' W 095°00'0 0.0
2018-Jun-20 05:00N 29°37' W 095°00'0 0.0
2018-Jun-20 04:30N 29°37' W 095°00'0 0.0
2018-Jun-20 04:00N 29°37' W 095°00'0 0.0
2018-Jun-20 03:27N 29°37' W 095°00'0 0.0
2018-Jun-20 03:00N 29°37' W 095°00'0 0.0
2018-Jun-20 02:30N 29°37' W 095°00'0 0.0
2018-Jun-20 01:57N 29°37' W 095°00'0 0.0
2018-Jun-20 01:30N 29°37' W 095°00'0 0.0
2018-Jun-20 01:00N 29°37' W 095°00'0 0.0
2018-Jun-20 00:27N 29°37' W 095°00'0 0.0
2018-Jun-20 00:00N 29°37' W 095°00'0 0.0
2018-Jun-19 22:42N 29°37' W 095°00'0 0.0
2018-Jun-19 22:18N 29°37' W 095°00'0 0.0
2018-Jun-19 21:48N 29°37' W 095°00'0 0.0
2018-Jun-19 21:30N 29°37' W 095°00'0 0.0
2018-Jun-19 20:54N 29°37' W 095°00'0 0.0
2018-Jun-19 20:30N 29°37' W 095°00'0 0.0
2018-Jun-19 19:57N 29°37' W 095°00'0 0.0
2018-Jun-19 19:27N 29°37' W 095°00'0 0.0
2018-Jun-19 18:54N 29°37' W 095°00'0 0.0
2018-Jun-19 18:27N 29°37' W 095°00'0 0.1
2018-Jun-19 18:00N 29°37' W 095°00'2 4.2
2018-Jun-19 17:30N 29°37' W 094°58'2 3.8
2018-Jun-19 16:56N 29°39' W 094°58'2 4.6
2018-Jun-19 16:30N 29°41' W 094°59'  
2018-Jun-15 07:29N 29°42' W 095°01'2 4.4
2018-Jun-15 07:00N 29°41' W 094°59'1 0.1
2018-Jun-14 19:25N 29°41' W 095°00'0 0.8
2018-Jun-14 18:59N 29°41' W 094°60'7 0.5
2018-Jun-14 04:25N 29°46' W 095°05'2 0.1
2018-Jun-13 05:36N 29°45' W 095°04'4 0.1
2018-Jun-11 08:32N 29°42' W 095°01'0 5.9
2018-Jun-11 08:30N 29°42' W 095°01'3 5.6
2018-Jun-11 08:00N 29°40' W 094°59'3 5.4
2018-Jun-11 07:30N 29°38' W 094°58'3 5.7
2018-Jun-11 07:00N 29°35' W 094°56'15 5.2
2018-Jun-11 04:04N 29°22' W 094°48'0 5.2
2018-Jun-11 04:00N 29°22' W 094°47'1 2.4
2018-Jun-11 03:30N 29°21' W 094°46'0 0.0
2018-Jun-11 02:52N 29°21' W 094°46'0 0.1
2018-Jun-11 02:25N 29°21' W 094°46'0 0.0
2018-Jun-11 01:52N 29°21' W 094°46'0 0.0
2018-Jun-11 01:22N 29°21' W 094°46'0 0.0
2018-Jun-11 00:58N 29°21' W 094°46'0 0.0
2018-Jun-11 00:22N 29°21' W 094°46'0 0.1
2018-Jun-10 23:49N 29°21' W 094°46'0 0.1
2018-Jun-10 23:10N 29°21' W 094°46'0 0.0
2018-Jun-10 22:55N 29°21' W 094°46'0 0.0
2018-Jun-10 22:25N 29°21' W 094°46'0 0.1
2018-Jun-10 21:55N 29°21' W 094°46'0 0.0
2018-Jun-10 21:28N 29°21' W 094°46'0 0.0
2018-Jun-10 20:58N 29°21' W 094°46'1 2.3
2018-Jun-10 20:30N 29°22' W 094°47'12 4.9
2018-Jun-10 18:01N 29°32' W 094°54'1 5.2
2018-Jun-10 17:54N 29°33' W 094°55'2 5.2
2018-Jun-10 17:29N 29°35' W 094°56'3 5.3
2018-Jun-10 17:00N 29°37' W 094°57'3 5.3
2018-Jun-10 16:30N 29°39' W 094°58'  

Dump ship's entire track history